Pagrindinis puslapis
METAR-TAF:

METAR-TAF

Oro uostai :

Kumamotas, Japonija

platuma: 32-50N, ilguma: 130-51E, Aukštis: 193 m

Dabartinis oras

Ataskaita buvo paskelbta 3 valandos ir 59 minutes, ne 12:00 UTC
Vėjas 7 kt iš Rytų/Šiaurės Rytų
Temperatūra 19°C
Drėgmė 68%
Slėgis 1012 hPa
Matomumas 10 km arba daugiau
nėra debesų žemiau 1500 m ir nėra kamuolinių lietaus debesų

METAR: RJFT 281200Z 06007KT CAVOK 19/13 Q1012

Laikas: 00:59 (15:59 UTC)

Prognozė

Ataskaita buvo paskelbta 4 valandos ir 54 minutes, ne 11:05 UTC
Prognozė galioja nuo 28 metu 12 UTC su 29 metu 18 UTC
Vėjas 6 kt iš Šiaurės Rytų
Matomumas 10 km arba daugiau
Mažai debesys ne aukštis 3000 ft
Tapsmas
nuo 29 metu 03 UTC su 29 metu 06 UTC
Vėjas 5 kt iš Vakarų/Pietvakarių
Tapsmas
nuo 29 metu 09 UTC su 29 metu 12 UTC
Vėjas 3 kt iš Rytų/Šiaurės Rytų

TAF: RJFT 281105Z 2812/2918 05006KT 9999 FEW030 BECMG 2903/2906 24005KT BECMG 2909/2912 06003KT

Orai ataskaitas ir orų prognozės (METAR, TAF).

turimą stotys yra geltonos ir raudonos taškus žemėlapyje.

Perkelti pele per norėdami pamatyti stoties vardą.

Tada spustelėkite, norėdami matyti oro stebėjimo ir prognozės.

Norėdami pakeisti žemėlapį: spustelėkite ant žalios mygtukų su juodo kryžiaus žemyn,; žalią mygtuką su brūkšneliu, jei norite nutolinti; arba žalių rodyklių gretimoms žemėlapius.


METAR-TAF: